This is the latest recevied weather packets stored in our database for station/object OK0EK-11. If no packets are shown the sender has not sent any weather packets the latest 10 day(s).
| Time | Temp. | Humidity | Pressure | Rain* | Wind** | Luminosity | Snow |
|---|---|---|---|---|---|---|---|
| 1778164192 | 12.78° C | 70% | 1014.7 hPa | - | - | - | - |
| 1778163593 | 12.22° C | 70% | 1014.7 hPa | - | - | - | - |
| 1778162994 | 12.78° C | 69% | 1014.9 hPa | - | - | - | - |
| 1778162394 | 12.78° C | 68% | 1014.9 hPa | - | - | - | - |
| 1778161802 | 12.78° C | 67% | 1014.9 hPa | - | - | - | - |
| 1778161795 | 12.78° C | 67% | 1014.9 hPa | - | - | - | - |
| 1778161197 | 12.78° C | 65% | 1014.7 hPa | - | - | - | - |
| 1778160597 | 13.33° C | 64% | 1014.9 hPa | - | - | - | - |
| 1778159997 | 13.33° C | 63% | 1015 hPa | - | - | - | - |
| 1778159398 | 13.89° C | 64% | 1015 hPa | - | - | - | - |
| 1778158798 | 13.89° C | 65% | 1015 hPa | - | - | - | - |
| 1778158199 | 13.89° C | 66% | 1015 hPa | - | - | - | - |
| 1778157599 | 13.33° C | 68% | 1015 hPa | - | - | - | - |
| 1778157000 | 13.89° C | 68% | 1014.9 hPa | - | - | - | - |
| 1778156401 | 13.33° C | 69% | 1015.1 hPa | - | - | - | - |
| 1778155802 | 13.33° C | 70% | 1015.1 hPa | - | - | - | - |
| 1778155202 | 13.89° C | 69% | 1015 hPa | - | - | - | - |
| 1778154603 | 14.44° C | 69% | 1014.9 hPa | - | - | - | - |
| 1778154003 | 14.44° C | 69% | 1015 hPa | - | - | - | - |
| 1778153404 | 14.44° C | 71% | 1015 hPa | - | - | - | - |
| 1778152805 | 13.33° C | 75% | 1015.2 hPa | - | - | - | - |
| 1778152206 | 12.22° C | 79% | 1015.1 hPa | - | - | - | - |
| 1778151607 | 11.67° C | 81% | 1014.9 hPa | - | - | - | - |
| 1778151007 | 11.67° C | 81% | 1015.1 hPa | - | - | - | - |
| 1778150408 | 12.22° C | 78% | 1015 hPa | - | - | - | - |
* Rain since midnight (hover to see other rain measurements)
** Current wind speed in m/s (hover to see current wind gust speed)